Time;durP1;ratioP1;P1;durP2;ratioP2;P2;SDS_P1;SDS_P2;PMS_P1;PMS_P2;Temp;Humidity;BMP_temperature;BMP_pressure;BME280_temperature;BME280_humidity;BME280_pressure;Samples;Min_cycle;Max_cycle;Signal;HPM_P1;HPM_P2
2021/05/30 00:01:47;;;;;;;45.83;32.95;;;11.60;87.00;;;;;;5009800;28;20033;-77
2021/05/30 00:04:13;;;;;;;42.88;32.28;;;11.60;87.10;;;;;;5025856;28;20033;-78
2021/05/30 00:06:39;;;;;;;44.70;33.35;;;11.60;87.00;;;;;;5009850;28;20054;-77
2021/05/30 00:09:05;;;;;;;48.45;34.53;;;11.60;87.20;;;;;;5029125;28;20125;-80
2021/05/30 00:11:34;;;;;;;47.33;34.50;;;11.50;87.40;;;;;;5027675;28;20030;-78
2021/05/30 00:14:00;;;;;;;49.35;35.15;;;11.50;87.40;;;;;;5010223;28;20389;-82
2021/05/30 00:16:26;;;;;;;47.72;34.45;;;11.50;87.60;;;;;;5028747;28;20038;-77
2021/05/30 00:18:52;;;;;;;44.25;34.03;;;11.50;87.50;;;;;;5028412;28;20025;-78
2021/05/30 00:21:17;;;;;;;48.53;37.33;;;11.50;87.40;;;;;;5025926;28;20420;-77
2021/05/30 00:23:43;;;;;;;49.38;36.13;;;11.40;87.60;;;;;;5010590;28;20081;-77
2021/05/30 00:26:09;;;;;;;51.90;37.38;;;11.40;87.70;;;;;;5023619;28;20076;-78
2021/05/30 00:28:35;;;;;;;52.78;38.20;;;11.40;87.80;;;;;;5028121;28;20030;-77
2021/05/30 00:31:00;;;;;;;51.92;37.25;;;11.40;87.70;;;;;;5026582;28;20057;-77
2021/05/30 00:33:26;;;;;;;52.72;37.80;;;11.40;87.90;;;;;;5028131;28;20021;-78
2021/05/30 00:35:51;;;;;;;53.55;37.65;;;11.30;87.90;;;;;;5013590;28;20025;-77
2021/05/30 00:38:17;;;;;;;52.78;39.50;;;11.30;88.00;;;;;;5024634;28;20025;-77
2021/05/30 00:40:43;;;;;;;52.65;37.15;;;11.30;88.10;;;;;;5033928;28;20079;-77
2021/05/30 00:43:09;;;;;;;53.53;39.70;;;11.30;88.00;;;;;;5027513;28;20040;-77
2021/05/30 00:45:35;;;;;;;55.05;41.63;;;11.30;88.20;;;;;;5003991;28;20030;-78
2021/05/30 00:48:00;;;;;;;57.13;39.28;;;11.30;88.20;;;;;;5010197;28;20519;-83
2021/05/30 00:50:26;;;;;;;58.33;40.67;;;11.30;88.40;;;;;;5018936;28;20029;-77
2021/05/30 00:52:53;;;;;;;53.75;39.55;;;11.30;88.40;;;;;;5021545;28;20036;-77
2021/05/30 00:55:20;;;;;;;60.38;40.97;;;11.20;88.40;;;;;;5026979;28;20029;-78
2021/05/30 00:57:46;;;;;;;60.92;41.95;;;11.20;88.40;;;;;;5021460;28;20045;-77
2021/05/30 01:00:13;;;;;;;58.40;43.22;;;11.30;88.40;;;;;;5021333;28;20566;-78
2021/05/30 01:02:39;;;;;;;60.35;42.13;;;11.20;88.40;;;;;;5021235;28;20431;-77
2021/05/30 01:05:07;;;;;;;60.05;42.92;;;11.20;88.60;;;;;;5008484;28;20043;-77
2021/05/30 01:07:42;;;;;;;54.53;40.92;;;11.30;88.50;;;;;;5028342;28;20464;-77
2021/05/30 01:10:26;;;;;;;63.58;42.53;;;11.30;88.50;;;;;;5016604;28;20026;-81
2021/05/30 01:12:52;;;;;;;60.67;42.20;;;11.20;88.50;;;;;;5014415;28;20034;-79
2021/05/30 01:15:18;;;;;;;60.67;41.80;;;11.20;88.50;;;;;;5024451;28;20084;-77
2021/05/30 01:17:47;;;;;;;59.67;42.45;;;11.20;88.60;;;;;;5026905;28;20076;-78
2021/05/30 01:20:17;;;;;;;65.53;43.17;;;11.20;88.60;;;;;;5022510;28;20476;-78
2021/05/30 01:22:44;;;;;;;62.92;42.33;;;11.20;88.60;;;;;;5021945;28;20038;-77
2021/05/30 01:25:12;;;;;;;62.10;42.67;;;11.20;88.60;;;;;;5034179;28;20030;-81
2021/05/30 01:27:38;;;;;;;62.05;42.67;;;11.10;88.60;;;;;;5032885;28;20346;-80
2021/05/30 01:30:09;;;;;;;62.75;44.30;;;11.20;88.60;;;;;;5025861;28;20464;-77
2021/05/30 01:32:35;;;;;;;64.00;45.35;;;11.20;88.50;;;;;;5023490;28;20038;-78
2021/05/30 01:35:01;;;;;;;60.45;42.00;;;11.20;88.40;;;;;;5020905;28;20034;-77
2021/05/30 01:37:27;;;;;;;61.55;43.25;;;11.10;88.50;;;;;;5007802;28;20061;-77
2021/05/30 01:39:52;;;;;;;56.85;42.25;;;11.10;88.60;;;;;;5026488;28;20445;-78
2021/05/30 01:42:19;;;;;;;60.00;43.28;;;11.10;88.60;;;;;;5030550;28;20025;-78
2021/05/30 01:44:44;;;;;;;60.33;42.45;;;11.10;88.60;;;;;;5030051;28;20026;-80
2021/05/30 01:47:10;;;;;;;59.80;42.58;;;11.10;88.60;;;;;;5031797;28;20076;-80
2021/05/30 01:49:36;;;;;;;61.58;44.97;;;11.10;88.60;;;;;;5030679;28;20067;-77
2021/05/30 01:52:03;;;;;;;62.75;44.67;;;11.10;88.80;;;;;;5031484;28;20519;-77
2021/05/30 01:54:29;;;;;;;65.88;44.53;;;11.10;88.80;;;;;;5026316;28;20111;-77
2021/05/30 01:56:57;;;;;;;65.88;45.00;;;11.00;88.90;;;;;;5027236;28;20042;-78
2021/05/30 01:59:24;;;;;;;63.97;44.55;;;11.00;89.10;;;;;;5022795;28;20034;-77
2021/05/30 02:01:52;;;;;;;69.32;46.30;;;11.00;89.20;;;;;;5026093;28;20467;-77
2021/05/30 02:04:21;;;;;;;68.95;46.00;;;11.00;89.20;;;;;;5026285;28;20048;-77
2021/05/30 02:06:49;;;;;;;66.00;45.95;;;11.00;89.30;;;;;;5027041;28;20037;-77
2021/05/30 02:09:16;;;;;;;66.63;45.97;;;10.90;89.40;;;;;;5025382;28;20026;-78
2021/05/30 02:11:41;;;;;;;69.05;46.22;;;10.90;89.50;;;;;;5022031;28;20049;-80
2021/05/30 02:14:08;;;;;;;68.13;45.35;;;10.90;89.70;;;;;;5012907;28;20139;-81
2021/05/30 02:16:37;;;;;;;65.18;46.33;;;10.90;89.80;;;;;;5018758;28;20030;-76
2021/05/30 02:19:03;;;;;;;68.88;46.53;;;10.90;89.60;;;;;;5024424;28;20025;-79
2021/05/30 02:21:47;;;;;;;69.15;47.13;;;10.90;89.70;;;;;;5024797;28;20056;-76
2021/05/30 02:24:14;;;;;;;63.85;45.88;;;10.80;89.70;;;;;;5007689;28;20030;-77
2021/05/30 02:26:41;;;;;;;72.40;45.63;;;10.90;89.70;;;;;;5014508;28;20076;-79
2021/05/30 02:29:07;;;;;;;69.32;45.97;;;10.80;89.80;;;;;;5008428;28;20698;-77
2021/05/30 02:31:33;;;;;;;69.03;44.63;;;10.80;89.80;;;;;;5025371;28;20117;-77
2021/05/30 02:33:59;;;;;;;66.88;46.20;;;10.80;89.80;;;;;;5005684;28;20483;-78
2021/05/30 02:36:26;;;;;;;70.40;46.90;;;10.80;89.80;;;;;;5024470;28;20033;-78
2021/05/30 02:38:52;;;;;;;68.10;45.03;;;10.80;89.90;;;;;;5013427;28;20022;-79
2021/05/30 02:41:18;;;;;;;67.88;45.97;;;10.80;90.00;;;;;;5007446;28;20073;-77
2021/05/30 02:43:43;;;;;;;69.85;47.22;;;10.80;90.00;;;;;;5006148;28;20038;-77
2021/05/30 02:46:09;;;;;;;70.07;45.60;;;10.70;89.90;;;;;;5008730;28;20125;-78
2021/05/30 02:48:36;;;;;;;67.13;46.17;;;10.70;90.10;;;;;;5010319;28;20025;-77
2021/05/30 02:51:03;;;;;;;73.13;48.78;;;10.60;90.10;;;;;;5018067;28;20462;-78
2021/05/30 02:53:31;;;;;;;69.47;46.97;;;10.60;90.20;;;;;;5032042;28;20044;-78
2021/05/30 02:55:59;;;;;;;72.47;47.65;;;10.60;90.30;;;;;;5018125;28;20069;-77
2021/05/30 02:58:26;;;;;;;68.13;44.95;;;10.60;90.40;;;;;;5021775;28;20356;-77
2021/05/30 03:00:53;;;;;;;76.40;48.50;;;10.60;90.30;;;;;;5022893;28;20118;-76
2021/05/30 03:03:19;;;;;;;70.55;46.85;;;10.60;90.50;;;;;;5025138;28;20037;-76
2021/05/30 03:05:45;;;;;;;67.63;44.35;;;10.60;90.60;;;;;;5025146;28;20048;-76
2021/05/30 03:08:10;;;;;;;72.90;46.85;;;10.60;90.50;;;;;;5019355;28;20085;-84
2021/05/30 03:10:36;;;;;;;70.20;47.08;;;10.60;90.50;;;;;;5013532;28;20443;-77
2021/05/30 03:13:02;;;;;;;72.07;47.10;;;10.60;90.50;;;;;;5009718;28;20088;-78
2021/05/30 03:15:28;;;;;;;68.80;44.75;;;10.60;90.50;;;;;;5015043;28;20449;-76
2021/05/30 03:17:54;;;;;;;68.25;46.10;;;10.60;90.40;;;;;;5025208;28;20057;-77
2021/05/30 03:20:20;;;;;;;66.38;45.13;;;10.60;90.40;;;;;;5026806;28;20109;-77
2021/05/30 03:22:46;;;;;;;65.65;44.42;;;10.60;90.30;;;;;;5029712;28;20453;-76
2021/05/30 03:25:12;;;;;;;66.63;46.08;;;10.60;90.30;;;;;;5036023;28;20469;-78
2021/05/30 03:27:38;;;;;;;66.97;45.13;;;10.60;90.30;;;;;;5024365;28;20021;-77
2021/05/30 03:30:06;;;;;;;67.63;45.38;;;10.60;90.20;;;;;;5017659;28;20338;-77
2021/05/30 03:32:32;;;;;;;64.72;42.88;;;10.60;90.20;;;;;;5025083;28;20036;-77
2021/05/30 03:34:58;;;;;;;66.07;44.00;;;10.60;90.20;;;;;;5016445;28;20057;-77
2021/05/30 03:37:24;;;;;;;66.88;43.30;;;10.60;90.10;;;;;;5011783;28;20025;-76
2021/05/30 03:39:53;;;;;;;67.03;44.78;;;10.60;90.10;;;;;;5022877;28;20053;-79
2021/05/30 03:42:25;;;;;;;63.85;42.33;;;10.50;90.20;;;;;;5012279;28;20046;-90
2021/05/30 03:44:51;;;;;;;62.55;42.75;;;10.60;90.20;;;;;;5019934;28;20026;-78
2021/05/30 03:47:17;;;;;;;64.88;43.25;;;10.50;90.10;;;;;;5007657;28;20038;-77
2021/05/30 03:49:43;;;;;;;62.47;42.55;;;10.50;90.20;;;;;;5027814;28;20072;-76
2021/05/30 03:52:09;;;;;;;63.80;43.65;;;10.50;90.10;;;;;;5023656;28;20052;-76
2021/05/30 03:54:35;;;;;;;58.10;39.80;;;10.50;90.10;;;;;;5026360;28;20040;-76
2021/05/30 03:57:01;;;;;;;60.15;40.45;;;10.50;90.10;;;;;;5040105;28;20319;-78
2021/05/30 03:59:27;;;;;;;59.15;40.65;;;10.50;90.10;;;;;;5018346;28;20080;-76
2021/05/30 04:01:53;;;;;;;58.72;41.00;;;10.60;90.00;;;;;;5010954;28;20034;-77
2021/05/30 04:04:18;;;;;;;56.55;38.95;;;10.50;89.90;;;;;;5022349;28;20488;-76
2021/05/30 04:06:44;;;;;;;57.75;40.20;;;10.60;90.00;;;;;;5025729;28;20251;-77
2021/05/30 04:09:10;;;;;;;59.45;40.78;;;10.60;89.80;;;;;;5025798;28;20034;-77
2021/05/30 04:11:35;;;;;;;54.20;38.55;;;10.60;89.80;;;;;;5000812;28;20027;-76
2021/05/30 04:14:01;;;;;;;52.92;36.92;;;10.60;89.70;;;;;;5020383;28;20049;-78
2021/05/30 04:16:27;;;;;;;55.95;37.33;;;10.60;89.70;;;;;;5007173;28;20037;-83
2021/05/30 04:18:52;;;;;;;55.05;38.55;;;10.60;89.60;;;;;;5011269;28;20125;-76
2021/05/30 04:21:18;;;;;;;54.20;37.63;;;10.70;89.50;;;;;;5006378;28;20394;-77
2021/05/30 04:23:44;;;;;;;53.22;38.00;;;10.60;89.40;;;;;;5022640;28;21326;-77
2021/05/30 04:26:09;;;;;;;50.88;35.92;;;10.60;89.40;;;;;;5029614;28;20026;-78
2021/05/30 04:28:36;;;;;;;51.28;36.75;;;10.70;89.40;;;;;;5028624;28;20191;-82
2021/05/30 04:31:01;;;;;;;54.97;37.70;;;10.60;89.20;;;;;;5021890;28;20040;-77
2021/05/30 04:33:27;;;;;;;49.95;36.10;;;10.80;89.20;;;;;;5030148;28;20105;-77
2021/05/30 04:35:53;;;;;;;53.00;35.30;;;10.80;89.10;;;;;;5029197;28;20076;-76
2021/05/30 04:38:19;;;;;;;55.80;38.20;;;10.80;89.20;;;;;;5013137;28;20118;-76
2021/05/30 04:40:46;;;;;;;52.50;35.95;;;10.80;89.00;;;;;;5021861;28;20054;-76
2021/05/30 04:43:12;;;;;;;49.33;35.70;;;10.80;89.20;;;;;;5026799;28;20047;-76
2021/05/30 04:45:38;;;;;;;53.65;35.90;;;10.80;89.20;;;;;;5026612;28;20029;-79
2021/05/30 04:48:04;;;;;;;49.95;35.45;;;10.90;89.20;;;;;;5033869;28;20125;-76
2021/05/30 04:50:29;;;;;;;54.00;34.13;;;11.00;89.10;;;;;;5019928;28;20034;-77
2021/05/30 04:52:55;;;;;;;48.53;33.67;;;11.10;88.90;;;;;;5026194;28;20045;-77
2021/05/30 04:55:21;;;;;;;50.22;34.67;;;11.10;88.40;;;;;;5027876;28;20092;-76
2021/05/30 04:57:47;;;;;;;45.78;34.13;;;11.10;88.50;;;;;;5020883;28;20040;-77
2021/05/30 05:00:15;;;;;;;44.83;33.28;;;11.10;88.50;;;;;;5027622;28;20124;-77
2021/05/30 05:02:41;;;;;;;48.60;34.50;;;11.20;88.30;;;;;;5026306;28;20394;-77
2021/05/30 05:05:10;;;;;;;45.63;32.80;;;11.20;88.20;;;;;;5009512;28;20049;-77
2021/05/30 05:07:36;;;;;;;49.88;35.58;;;11.30;88.10;;;;;;5006819;28;20022;-77
2021/05/30 05:10:02;;;;;;;46.15;35.20;;;11.30;87.90;;;;;;5012750;28;20037;-79
2021/05/30 05:12:27;;;;;;;46.33;32.63;;;11.30;88.10;;;;;;5026384;28;20564;-77
2021/05/30 05:14:53;;;;;;;40.47;31.35;;;11.60;88.20;;;;;;5025136;28;20121;-77
2021/05/30 05:17:19;;;;;;;36.40;28.48;;;12.30;86.50;;;;;;5016568;28;20033;-77
2021/05/30 05:19:44;;;;;;;30.88;25.23;;;13.50;83.50;;;;;;5013271;28;20026;-80
2021/05/30 05:22:10;;;;;;;32.05;25.98;;;14.60;78.10;;;;;;5032000;28;20022;-79
2021/05/30 05:24:36;;;;;;;30.25;23.85;;;15.10;74.60;;;;;;5026985;28;20116;-77
2021/05/30 05:27:02;;;;;;;31.08;26.25;;;15.20;73.80;;;;;;5033595;28;20489;-78
2021/05/30 05:29:27;;;;;;;31.63;26.00;;;15.60;72.30;;;;;;5034385;28;20033;-77
2021/05/30 05:31:53;;;;;;;29.60;24.33;;;15.80;72.00;;;;;;5037659;28;20037;-77
2021/05/30 05:34:19;;;;;;;32.28;24.83;;;15.90;71.00;;;;;;5024732;28;20030;-77
2021/05/30 05:36:45;;;;;;;28.02;22.80;;;15.80;71.10;;;;;;5017134;28;20022;-78
2021/05/30 05:39:11;;;;;;;27.90;22.92;;;16.10;70.70;;;;;;5023585;28;20030;-77
2021/05/30 05:41:37;;;;;;;28.67;24.85;;;16.20;68.40;;;;;;5029927;28;20503;-77
2021/05/30 05:44:02;;;;;;;32.72;26.15;;;15.30;71.30;;;;;;5034276;28;20392;-78
2021/05/30 05:46:28;;;;;;;32.45;26.88;;;15.10;73.00;;;;;;5016628;28;20066;-81
2021/05/30 05:48:54;;;;;;;32.95;26.88;;;14.90;74.50;;;;;;5025825;28;20064;-77
2021/05/30 05:51:19;;;;;;;33.17;26.52;;;15.00;73.80;;;;;;5035590;28;20052;-77
2021/05/30 05:53:46;;;;;;;33.53;26.65;;;14.60;74.30;;;;;;5026145;28;20038;-78
2021/05/30 05:56:13;;;;;;;35.25;28.65;;;14.30;75.90;;;;;;5032473;28;20041;-76
2021/05/30 05:58:38;;;;;;;37.00;28.05;;;13.90;77.40;;;;;;5034989;28;20469;-78
2021/05/30 06:01:04;;;;;;;34.00;27.80;;;14.00;78.00;;;;;;5035395;28;20038;-77
2021/05/30 06:03:30;;;;;;;37.88;28.73;;;14.00;76.90;;;;;;5032738;28;20026;-77
2021/05/30 06:05:55;;;;;;;35.17;28.77;;;13.70;78.90;;;;;;5023119;28;20022;-80
2021/05/30 06:08:21;;;;;;;37.25;28.52;;;13.60;79.00;;;;;;5029517;28;20037;-76
2021/05/30 06:10:47;;;;;;;36.05;28.55;;;13.40;79.80;;;;;;5029164;28;20044;-76
2021/05/30 06:13:12;;;;;;;33.92;28.65;;;13.40;79.40;;;;;;5026407;28;20117;-76
2021/05/30 06:15:40;;;;;;;36.90;29.15;;;13.40;80.30;;;;;;5015831;28;20083;-76
2021/05/30 06:18:10;;;;;;;37.95;29.08;;;13.70;79.50;;;;;;5037416;28;20120;-77
2021/05/30 06:20:36;;;;;;;36.88;28.98;;;14.00;78.50;;;;;;5031552;28;20465;-77
2021/05/30 06:23:03;;;;;;;33.38;26.88;;;14.30;77.70;;;;;;5022522;28;20042;-77
2021/05/30 06:25:29;;;;;;;35.28;28.02;;;14.50;76.70;;;;;;5018960;28;20037;-77
2021/05/30 06:27:56;;;;;;;35.00;27.45;;;14.60;76.10;;;;;;5003590;28;20368;-77
2021/05/30 06:30:29;;;;;;;34.22;27.67;;;14.50;76.50;;;;;;5027190;28;20052;-77
2021/05/30 06:32:56;;;;;;;32.65;26.45;;;14.20;77.00;;;;;;5031231;28;20417;-77
2021/05/30 06:35:22;;;;;;;32.70;26.85;;;14.30;76.90;;;;;;5026932;28;20038;-77
2021/05/30 06:37:48;;;;;;;36.97;29.25;;;14.10;77.80;;;;;;5033054;28;20021;-78
2021/05/30 06:40:14;;;;;;;33.40;27.00;;;14.40;77.70;;;;;;5022662;28;20053;-77
2021/05/30 06:42:40;;;;;;;34.53;27.98;;;14.70;75.10;;;;;;5019655;28;20045;-81
2021/05/30 06:45:06;;;;;;;34.33;27.85;;;14.40;76.70;;;;;;5017008;28;20033;-79
2021/05/30 06:47:32;;;;;;;32.78;27.23;;;14.60;76.60;;;;;;5021728;28;20489;-79
2021/05/30 06:49:58;;;;;;;30.85;26.08;;;15.00;76.10;;;;;;5026234;28;20075;-77
2021/05/30 06:52:24;;;;;;;31.00;25.67;;;15.20;74.80;;;;;;5022287;28;20034;-80
2021/05/30 06:54:49;;;;;;;29.75;25.30;;;15.20;73.50;;;;;;5024598;28;20029;-85
2021/05/30 06:57:16;;;;;;;31.50;26.80;;;15.40;74.10;;;;;;5018976;28;20375;-77
2021/05/30 06:59:42;;;;;;;31.80;26.50;;;15.30;73.10;;;;;;5015237;28;20054;-77
2021/05/30 07:02:07;;;;;;;31.13;25.33;;;15.30;73.40;;;;;;5017992;28;20361;-79
2021/05/30 07:04:33;;;;;;;29.75;24.98;;;15.30;73.70;;;;;;5023114;28;20040;-77
2021/05/30 07:06:59;;;;;;;32.40;25.58;;;15.40;73.60;;;;;;5024229;28;20034;-78
2021/05/30 07:09:25;;;;;;;32.40;26.70;;;15.50;72.40;;;;;;5015369;28;20051;-86
2021/05/30 07:11:50;;;;;;;31.88;27.08;;;15.20;74.30;;;;;;5022368;28;20080;-77
2021/05/30 07:14:16;;;;;;;32.17;26.55;;;15.30;73.40;;;;;;5020591;28;20018;-77
2021/05/30 07:16:42;;;;;;;30.20;25.70;;;15.50;72.80;;;;;;5019858;28;20034;-77
2021/05/30 07:19:07;;;;;;;31.30;26.52;;;15.90;72.30;;;;;;5027497;28;20556;-77
2021/05/30 07:21:35;;;;;;;30.10;25.30;;;16.20;70.80;;;;;;5025827;28;20140;-82
2021/05/30 07:24:01;;;;;;;31.05;24.52;;;16.30;72.10;;;;;;5027334;28;20400;-81
2021/05/30 07:26:27;;;;;;;33.33;27.88;;;16.60;70.10;;;;;;5015539;28;20017;-79
2021/05/30 07:28:53;;;;;;;31.02;27.65;;;16.60;69.20;;;;;;5020670;28;20044;-80
2021/05/30 07:31:19;;;;;;;32.47;27.77;;;16.50;69.80;;;;;;5019448;28;20029;-78
2021/05/30 07:33:45;;;;;;;33.03;28.85;;;16.30;70.90;;;;;;5013126;28;20038;-79
2021/05/30 07:36:11;;;;;;;32.65;27.50;;;16.40;71.30;;;;;;5014270;28;20029;-74
2021/05/30 07:38:37;;;;;;;30.17;26.83;;;16.40;71.20;;;;;;5021259;28;20018;-74
2021/05/30 07:41:03;;;;;;;31.30;27.90;;;16.50;70.00;;;;;;5016461;28;20022;-74
2021/05/30 07:43:29;;;;;;;36.10;29.95;;;16.60;70.10;;;;;;5020570;28;20117;-73
2021/05/30 07:45:55;;;;;;;39.30;32.58;;;16.40;71.20;;;;;;5016802;28;20034;-74
2021/05/30 07:48:21;;;;;;;38.53;32.13;;;16.40;70.80;;;;;;4997410;28;24457;-74
2021/05/30 07:50:47;;;;;;;40.63;34.65;;;15.90;72.50;;;;;;4997698;28;20034;-74
2021/05/30 07:53:14;;;;;;;37.47;32.75;;;16.00;72.50;;;;;;5005707;28;20033;-74
2021/05/30 07:55:41;;;;;;;36.28;32.38;;;16.20;71.90;;;;;;5020262;28;20041;-75
2021/05/30 07:58:07;;;;;;;37.85;32.40;;;16.10;71.30;;;;;;5018074;28;20129;-73
2021/05/30 08:00:33;;;;;;;38.35;32.60;;;16.20;71.30;;;;;;5019257;28;20398;-73
2021/05/30 08:02:59;;;;;;;38.20;33.90;;;16.40;70.90;;;;;;5018422;28;20045;-74
2021/05/30 08:05:24;;;;;;;38.85;33.78;;;16.30;71.10;;;;;;5021637;28;20040;-74
2021/05/30 08:07:51;;;;;;;40.58;33.67;;;16.40;70.70;;;;;;5015702;28;20421;-73
2021/05/30 08:10:18;;;;;;;38.80;34.60;;;16.70;71.00;;;;;;5018627;28;20117;-75
2021/05/30 08:12:44;;;;;;;38.40;33.50;;;16.60;70.30;;;;;;5015516;28;20121;-74
2021/05/30 08:15:10;;;;;;;37.47;32.80;;;16.60;69.40;;;;;;5017176;28;20124;-73
2021/05/30 08:17:37;;;;;;;42.42;37.13;;;16.70;68.80;;;;;;5024598;28;20041;-73
2021/05/30 08:20:08;;;;;;;48.35;42.50;;;16.40;70.20;;;;;;5019219;28;20526;-74
2021/05/30 08:22:34;;;;;;;39.65;35.08;;;16.70;70.40;;;;;;5021664;28;20040;-74
2021/05/30 08:25:01;;;;;;;46.53;40.60;;;17.10;69.30;;;;;;5016328;28;20038;-73
2021/05/30 08:27:27;;;;;;;50.60;44.08;;;17.10;70.20;;;;;;5009588;28;20064;-73
2021/05/30 08:29:53;;;;;;;53.72;44.75;;;17.10;68.50;;;;;;5014365;28;20124;-74
2021/05/30 08:32:20;;;;;;;51.35;44.30;;;17.10;68.30;;;;;;5008185;28;20037;-75
2021/05/30 08:34:46;;;;;;;51.25;40.67;;;17.20;69.70;;;;;;5014399;28;20072;-72
2021/05/30 08:37:13;;;;;;;51.13;43.78;;;16.80;69.40;;;;;;5013689;28;20037;-74
2021/05/30 08:39:38;;;;;;;50.65;43.80;;;17.00;68.70;;;;;;5017286;28;20048;-74
2021/05/30 08:42:04;;;;;;;50.33;44.28;;;17.40;69.80;;;;;;5012648;28;20392;-74
2021/05/30 08:44:30;;;;;;;51.30;44.00;;;17.70;68.30;;;;;;5013463;28;20099;-73
2021/05/30 08:46:56;;;;;;;48.42;40.75;;;17.60;67.30;;;;;;5013078;28;20037;-73
2021/05/30 08:49:22;;;;;;;53.30;44.63;;;17.70;67.50;;;;;;5011140;28;20047;-75
2021/05/30 08:51:47;;;;;;;51.30;45.13;;;17.70;66.90;;;;;;5012818;28;20596;-74
2021/05/30 08:54:18;;;;;;;49.53;43.30;;;18.10;66.40;;;;;;5013195;28;20060;-73
2021/05/30 08:56:47;;;;;;;52.35;44.88;;;18.00;65.40;;;;;;5012213;28;20105;-80
2021/05/30 08:59:19;;;;;;;55.13;45.65;;;17.80;66.80;;;;;;5013653;28;20047;-74
2021/05/30 09:01:46;;;;;;;52.75;46.20;;;18.20;65.60;;;;;;5014983;28;20120;-73
2021/05/30 09:04:12;;;;;;;55.95;46.28;;;18.20;65.40;;;;;;5013202;28;20034;-73
2021/05/30 09:06:40;;;;;;;52.70;46.03;;;18.10;66.10;;;;;;5015339;28;20037;-75
2021/05/30 09:09:08;;;;;;;55.33;47.65;;;18.40;66.10;;;;;;5007959;28;20022;-72
2021/05/30 09:11:52;;;;;;;55.65;46.83;;;18.30;65.30;;;;;;5013857;28;20164;-71
2021/05/30 09:14:25;;;;;;;53.28;46.33;;;18.30;65.80;;;;;;5015226;28;20124;-72
2021/05/30 09:17:01;;;;;;;53.70;47.28;;;18.40;65.20;;;;;;5015034;28;20038;-71
2021/05/30 09:19:43;;;;;;;48.78;42.95;;;18.30;65.30;;;;;;5011064;28;20112;-72
2021/05/30 09:22:29;;;;;;;47.00;41.55;;;18.60;64.20;;;;;;5012439;28;20335;-71
2021/05/30 09:25:11;;;;;;;47.97;41.22;;;18.50;64.50;;;;;;5013772;28;22035;-75
2021/05/30 09:28:01;;;;;;;57.85;49.95;;;19.10;62.70;;;;;;5004983;28;20064;-69
2021/05/30 09:30:42;;;;;;;49.83;44.42;;;19.40;62.90;;;;;;5010767;28;20050;-76
2021/05/30 09:33:23;;;;;;;49.35;42.65;;;19.70;62.20;;;;;;5023974;28;20045;-74
2021/05/30 09:35:55;;;;;;;59.03;51.50;;;19.30;61.00;;;;;;5011419;28;20377;-72
2021/05/30 09:38:23;;;;;;;54.20;48.25;;;18.80;62.70;;;;;;5010970;28;20069;-73
2021/05/30 09:40:57;;;;;;;58.97;50.03;;;19.00;64.60;;;;;;4999191;28;20128;-72
2021/05/30 09:43:27;;;;;;;;;;;19.10;63.30;;;;;;5016543;28;20108;-71
2021/05/30 09:46:10;;;;;;;56.85;49.53;;;19.30;62.20;;;;;;5010160;28;20281;-72
2021/05/30 09:48:42;;;;;;;51.13;44.25;;;19.70;62.50;;;;;;5029963;28;20352;-74
2021/05/30 09:51:29;;;;;;;58.15;49.00;;;19.80;62.30;;;;;;5016211;28;20052;-72
2021/05/30 09:53:56;;;;;;;60.67;51.75;;;19.00;62.70;;;;;;5017814;28;20375;-72
2021/05/30 09:56:41;;;;;;;53.05;46.13;;;19.10;62.80;;;;;;5015975;28;20128;-72
2021/05/30 09:59:15;;;;;;;58.65;49.05;;;19.00;61.70;;;;;;5015212;28;20039;-73
2021/05/30 10:02:01;;;;;;;62.72;53.55;;;19.00;63.10;;;;;;5015897;28;20041;-72
2021/05/30 10:04:28;;;;;;;63.78;54.55;;;19.00;62.60;;;;;;5016288;28;20128;-73
2021/05/30 10:06:56;;;;;;;70.28;53.55;;;19.10;62.90;;;;;;5020108;28;20034;-71
2021/05/30 10:09:22;;;;;;;57.25;47.47;;;19.30;61.50;;;;;;5017270;28;20439;-75
2021/05/30 10:11:48;;;;;;;66.88;54.83;;;19.60;61.40;;;;;;5015762;28;20468;-72
2021/05/30 10:14:15;;;;;;;52.78;44.83;;;19.60;61.00;;;;;;5016362;28;20054;-73
2021/05/30 10:16:40;;;;;;;55.22;44.97;;;19.50;59.50;;;;;;5014457;28;20411;-73
2021/05/30 10:19:28;;;;;;;60.10;51.65;;;19.60;59.70;;;;;;5013292;28;20041;-75
2021/05/30 10:21:57;;;;;;;60.33;49.28;;;19.60;60.10;;;;;;5012848;28;20456;-72
2021/05/30 10:24:24;;;;;;;57.88;48.50;;;19.50;59.00;;;;;;5013112;28;20117;-74
2021/05/30 10:27:18;;;;;;;55.22;45.88;;;19.80;60.30;;;;;;5014607;28;20453;-75
2021/05/30 10:30:10;;;;;;;61.67;47.92;;;20.30;57.70;;;;;;5014317;28;20169;-76
2021/05/30 10:33:00;;;;;;;51.88;44.45;;;20.50;58.20;;;;;;4996227;28;20578;-78
2021/05/30 10:35:26;;;;;;;55.05;46.13;;;19.90;58.20;;;;;;4992754;28;20064;-74
2021/05/30 10:37:54;;;;;;;60.25;50.50;;;20.70;57.00;;;;;;5003832;28;20041;-73
2021/05/30 10:40:25;;;;;;;63.58;50.95;;;20.90;55.90;;;;;;5016996;28;20099;-74
2021/05/30 10:43:09;;;;;;;50.78;38.60;;;20.60;56.60;;;;;;5017682;28;20030;-73
2021/05/30 10:45:44;;;;;;;46.58;37.78;;;20.80;54.80;;;;;;5016737;28;20484;-72
2021/05/30 10:48:18;;;;;;;51.08;40.45;;;21.10;53.60;;;;;;5016060;28;20857;-72
2021/05/30 10:50:53;;;;;;;54.78;42.33;;;21.10;53.00;;;;;;5017181;28;20021;-73
2021/05/30 10:53:30;;;;;;;52.67;42.33;;;21.20;53.90;;;;;;5015657;28;20026;-72
2021/05/30 10:56:12;;;;;;;47.00;36.13;;;20.90;54.50;;;;;;5018062;28;20121;-74
2021/05/30 10:58:39;;;;;;;50.25;39.40;;;21.00;52.90;;;;;;5017433;28;20034;-73
2021/05/30 11:01:05;;;;;;;44.95;34.58;;;21.10;51.90;;;;;;5016108;28;20140;-76
2021/05/30 11:03:30;;;;;;;39.42;31.25;;;21.10;53.10;;;;;;5012613;28;20176;-73
2021/05/30 11:05:57;;;;;;;38.80;30.17;;;21.10;50.50;;;;;;5015344;28;20042;-72
2021/05/30 11:08:32;;;;;;;35.72;29.83;;;21.10;50.40;;;;;;5019922;28;20060;-73
2021/05/30 11:11:26;;;;;;;38.38;30.13;;;20.90;50.40;;;;;;5019325;28;20525;-73
2021/05/30 11:14:00;;;;;;;37.05;30.13;;;21.30;51.80;;;;;;4994534;28;20369;-72
2021/05/30 11:16:33;;;;;;;34.45;28.52;;;22.10;49.40;;;;;;5001307;28;20076;-72
2021/05/30 11:19:10;;;;;;;28.35;21.60;;;21.60;49.00;;;;;;5006304;28;20124;-74
2021/05/30 11:21:44;;;;;;;25.52;20.42;;;21.00;47.90;;;;;;5024373;28;20044;-77
2021/05/30 11:24:11;;;;;;;26.75;20.92;;;21.70;49.00;;;;;;4999680;28;20052;-73
2021/05/30 11:26:38;;;;;;;25.98;21.25;;;21.90;47.40;;;;;;4993201;28;20474;-73
2021/05/30 11:29:05;;;;;;;21.60;17.05;;;21.70;47.90;;;;;;4994044;28;20037;-76
2021/05/30 11:31:32;;;;;;;25.58;19.42;;;22.10;44.50;;;;;;5008430;28;20132;-73
2021/05/30 11:34:05;;;;;;;23.27;18.98;;;21.70;44.90;;;;;;5007861;28;21211;-74
2021/05/30 11:36:33;;;;;;;22.63;18.08;;;21.40;46.70;;;;;;5016947;28;20354;-72
2021/05/30 11:39:15;;;;;;;22.77;15.77;;;21.50;47.50;;;;;;5002634;28;20026;-73
2021/05/30 11:41:47;;;;;;;24.52;17.92;;;22.20;43.10;;;;;;5009716;28;20038;-73
2021/05/30 11:44:32;;;;;;;24.58;18.63;;;22.60;43.00;;;;;;5000746;28;20033;-74
2021/05/30 11:47:03;;;;;;;19.98;16.15;;;22.00;45.00;;;;;;4992342;28;20042;-72
2021/05/30 11:49:33;;;;;;;19.60;14.52;;;21.30;43.00;;;;;;5018213;28;20029;-73
2021/05/30 11:52:01;;;;;;;19.92;15.63;;;21.10;43.10;;;;;;5022331;28;20029;-73
2021/05/30 11:54:34;;;;;;;20.33;16.10;;;21.10;42.30;;;;;;5006160;28;20306;-71
2021/05/30 11:57:03;;;;;;;19.98;15.80;;;21.30;43.40;;;;;;5006069;28;20092;-73
2021/05/30 11:59:35;;;;;;;21.55;17.17;;;21.90;44.70;;;;;;5024669;28;20042;-74
2021/05/30 12:02:01;;;;;;;22.25;17.00;;;22.30;42.10;;;;;;5016778;28;20112;-80
2021/05/30 12:04:31;;;;;;;23.88;19.15;;;22.30;40.70;;;;;;5003276;28;20056;-80
2021/05/30 12:06:57;;;;;;;24.92;19.73;;;21.70;43.00;;;;;;4995250;28;20057;-72
2021/05/30 12:09:24;;;;;;;23.60;18.90;;;22.10;44.60;;;;;;4990258;28;20035;-72
2021/05/30 12:11:50;;;;;;;24.52;20.23;;;22.60;43.00;;;;;;4997799;28;20031;-71
2021/05/30 12:14:17;;;;;;;22.90;19.17;;;22.80;41.50;;;;;;4997541;28;20037;-71
2021/05/30 12:16:46;;;;;;;23.42;19.25;;;23.00;42.20;;;;;;4999243;28;20401;-72
2021/05/30 12:19:12;;;;;;;25.13;19.20;;;23.00;42.40;;;;;;4993998;28;20069;-71
2021/05/30 12:21:46;;;;;;;24.00;17.73;;;23.10;42.10;;;;;;5004032;28;20115;-73
2021/05/30 12:24:15;;;;;;;;;;;23.60;42.40;;;;;;4999504;28;20496;-71
2021/05/30 12:26:48;;;;;;;24.50;20.17;;;23.60;38.90;;;;;;4999984;28;20044;-71
2021/05/30 12:29:16;;;;;;;22.48;18.63;;;22.80;41.60;;;;;;5006320;28;20026;-71
2021/05/30 12:31:42;;;;;;;22.27;18.02;;;22.70;42.90;;;;;;5020781;28;20037;-71
2021/05/30 12:34:09;;;;;;;23.13;19.02;;;23.10;42.80;;;;;;5017950;28;20672;-71